• Join FlightAware (Why Join?)
  • Login
  • US Flag 
09:03PM EDT


 

Airport Tracker/Info


-or-


 

Live Flight TrackerFlight Track Log ✈ CJC3407 ✈ 12-Feb-2009 ✈ KEWR - KBUF

Flight Track Log - Related Links

Times and Time Zones

All times are in EST time to prevent confusion due to time zone crossing. See the CJC3407 flight status page for this flight to view local times or setup timezone preferences in your user account.

Time Position Orientation Groundspeed Altitude Reporting Facility
EST Latitude Longitude Course Direction KTS MPH feet Rate Location/Type
09:19PM 40.6667 -74.2000 246° West 176 203 1,700  Level New York TRACON
09:20PM 40.6614 -74.2153 247° West 16,000 2,700 Climbing New York Center
09:20PM 40.6500 -74.2500 333° Northwest 164 189 4,400 -10,380 Descending New York TRACON
09:21PM 40.6725 -74.2653 334° Northwest 172 198 5,500 2,640 Climbing New York Center
09:21PM 40.7000 -74.2833 337° Northwest 151 174 7,100 2,100 Climbing New York TRACON
09:22PM 40.7153 -74.2919 314° West 164 189 7,600 1,980 Climbing New York Center
09:22PM 40.7333 -74.3167 320° Northwest 177 204 9,100 2,160 Climbing New York TRACON
09:23PM 40.7494 -74.3347 324° Northwest 190 219 9,800 900 Climbing New York Center
09:23PM 40.7833 -74.3667 334° Northwest 216 249 10,000 180 Climbing New York TRACON
09:24PM 40.8064 -74.3817 325° Northwest 241 277 10,000 960 Level New York Center
09:25PM 40.8631 -74.4342 324° Northwest 276 318 11,500 960 Climbing New York Center
09:26PM 40.9239 -74.4922 321° Northwest 265 305 12,000 240 Climbing New York Center
09:27PM 40.9842 -74.5561 326° Northwest 265 305 12,000  Level New York Center
09:28PM 41.0492 -74.6147 323° Northwest 270 311 12,000 -60 Level New York Center
09:29PM 41.1117 -74.6761 313° West 275 316 11,900 -60 Descending New York Center
09:30PM 41.1614 -74.7478 299° West 280 322 11,900  Level New York Center
09:31PM 41.1997 -74.8383 299° West 275 316 11,900 60 Level New York Center
09:32PM 41.2364 -74.9261 301° West 275 316 12,100 780 Climbing New York Center
09:33PM 41.2750 -75.0111 300° West 275 316 13,500 1,440 Climbing New York Center
09:34PM 41.3114 -75.0964 300° West 275 316 15,000 1,200 Climbing New York Center
09:35PM 41.3500 -75.1844 299° West 275 316 16,000 480 Climbing New York Center
09:36PM 41.3919 -75.2869 300° West 291 335 16,000  Level New York Center
09:37PM 41.4378 -75.3922 300° West 310 357 16,000  Level New York Center
09:38PM 41.4817 -75.4950 298° West 323 372 16,000  Level New York Center
09:39PM 41.5231 -75.6006 298° West 323 372 16,000  Level New York Center
09:40PM 41.5628 -75.7003 299° West 317 365 16,000  Level New York Center
09:41PM 41.6044 -75.8006 299° West 312 359 16,000  Level New York Center
09:42PM 41.6439 -75.8978 300° West 312 359 16,000  Level New York Center
09:43PM 41.6875 -75.9983 296° West 312 359 16,000  Level New York Center
09:44PM 41.7244 -76.1014 300° West 312 359 16,000  Level New York Center
09:45PM 41.7678 -76.2022 298° West 312 359 16,000 -60 Level New York Center
09:46PM 41.8072 -76.3000 297° West 312 359 15,900  Descending New York Center
09:47PM 41.8481 -76.4064 298° West 312 359 16,000  Climbing New York Center
09:48PM 41.8889 -76.5103 299° West 312 359 16,000  Level New York Center
09:49PM 41.9317 -76.6142 298° West 312 359 16,000  Level New York Center
09:50PM 41.9744 -76.7228 298° West 324 373 16,000  Level Cleveland Center
09:51PM 42.0131 -76.8211 299° West 324 373 16,000  Level Cleveland Center
09:52PM 42.0539 -76.9222 297° West 311 358 16,000  Level Cleveland Center
09:53PM 42.0903 -77.0181 298° West 301 346 16,000  Level Cleveland Center
09:54PM 42.1311 -77.1222 297° West 301 346 16,000  Level Cleveland Center
09:55PM 42.1694 -77.2239 285° West 301 346 16,000  Level Cleveland Center
09:56PM 42.1842 -77.2961 293° West 301 346 16,000  Level Cleveland Center
09:57PM 42.2250 -77.4231 296° West 341 392 16,000 -120 Level Cleveland Center
09:58PM 42.2611 -77.5250 294° West 319 367 15,800 -480 Descending Cleveland Center
09:59PM 42.2953 -77.6300 293° West 307 353 15,100 -720 Descending Cleveland Center
10:00PM 42.3269 -77.7297 293° West 297 342 14,400 -660 Descending Cleveland Center
10:01PM 42.3608 -77.8378 292° West 292 336 13,800 -660 Descending Cleveland Center
10:02PM 42.3903 -77.9350 294° West 287 330 13,100 -720 Descending Cleveland Center
10:03PM 42.4214 -78.0292 293° West 287 330 12,400 -660 Descending Cleveland Center
10:04PM 42.4528 -78.1292 294° West 287 330 11,800 -600 Descending Cleveland Center
10:05PM 42.4842 -78.2239 334° Northwest 287 330 11,200 -780 Descending Cleveland Center
10:06PM 42.5517 -78.2692 341° North 256 295 10,300 -900 Descending Cleveland Center
10:07PM 42.6128 -78.2981 338° Northwest 256 295 9,400 -960 Descending Cleveland Center
10:08PM 42.6739 -78.3325 338° Northwest 249 287 8,400 -1,020 Descending Cleveland Center
10:09PM 42.7328 -78.3642 338° Northwest 236 272 7,400 -1,020 Descending Cleveland Center
10:10PM 42.7897 -78.3961 339° North 231 266 6,400 -1,080 Descending Cleveland Center
10:11PM 42.8403 -78.4228 339° North 207 238 5,300 -1,140 Descending Cleveland Center